Time;durP1;ratioP1;P1;durP2;ratioP2;P2;SDS_P1;SDS_P2;PMS_P1;PMS_P2;Temp;Humidity;BMP_temperature;BMP_pressure;BME280_temperature;BME280_humidity;BME280_pressure;Samples;Min_cycle;Max_cycle;Signal;HPM_P1;HPM_P2
2021/05/28 00:01:26;;;;;;;3.00;2.17;;;;;;;;;;5018505;28;20148;-38
2021/05/28 00:03:51;;;;;;;13.57;3.25;;;;;;;;;;5020008;28;20453;-38
2021/05/28 00:06:17;;;;;;;5.03;3.47;;;;;;;;;;5021891;28;20041;-39
2021/05/28 00:08:42;;;;;;;6.10;3.38;;;;;;;;;;5018663;28;20063;-39
2021/05/28 00:11:07;;;;;;;11.35;3.50;;;;;;;;;;5018529;28;20040;-40
2021/05/28 00:13:33;;;;;;;5.80;2.35;;;;;;;;;;5016024;28;20045;-39
2021/05/28 00:15:58;;;;;;;4.47;2.58;;;;;;;;;;5018675;28;20536;-39
2021/05/28 00:18:23;;;;;;;6.22;2.67;;;;;;;;;;5013758;28;20037;-39
2021/05/28 00:20:49;;;;;;;6.82;3.67;;;;;;;;;;5016093;28;20029;-39
2021/05/28 00:23:14;;;;;;;6.45;3.85;;;;;;;;;;5020023;28;20046;-39
2021/05/28 00:25:39;;;;;;;5.78;2.45;;;;;;;;;;5018046;28;20080;-39
2021/05/28 00:28:05;;;;;;;8.25;2.85;;;;;;;;;;5015760;28;20037;-38
2021/05/28 00:30:30;;;;;;;7.75;3.72;;;;;;;;;;5001353;28;20231;-39
2021/05/28 00:32:55;;;;;;;7.63;2.60;;;;;;;;;;5016683;28;20098;-39
2021/05/28 00:35:21;;;;;;;6.80;2.75;;;;;;;;;;5017374;28;20403;-38
2021/05/28 00:37:46;;;;;;;3.45;2.15;;;;;;;;;;5032584;28;20034;-39
2021/05/28 00:40:12;;;;;;;8.70;3.15;;;;;;;;;;5018860;28;20491;-39
2021/05/28 00:42:37;;;;;;;4.40;3.05;;;;;;;;;;5020778;28;20030;-39
2021/05/28 00:45:03;;;;;;;4.65;2.10;;;;;;;;;;5017687;28;20036;-39
2021/05/28 00:47:28;;;;;;;5.43;3.65;;;;;;;;;;5019961;28;20471;-39
2021/05/28 00:49:54;;;;;;;8.45;3.38;;;;;;;;;;5018384;28;20566;-39
2021/05/28 00:52:19;;;;;;;4.70;3.45;;;;;;;;;;5013170;28;20030;-40
2021/05/28 00:54:45;;;;;;;6.68;2.88;;;;;;;;;;5014533;28;20062;-39
2021/05/28 00:57:10;;;;;;;4.68;3.25;;;;;;;;;;5017613;28;20396;-39
2021/05/28 00:59:38;;;;;;;3.50;2.70;;;;;;;;;;5014907;28;20686;-38
2021/05/28 01:02:04;;;;;;;4.90;3.58;;;;;;;;;;5016546;28;20034;-38
2021/05/28 01:04:29;;;;;;;8.05;3.42;;;;;;;;;;5019142;28;20398;-38
2021/05/28 01:06:55;;;;;;;4.93;3.30;;;;;;;;;;5014065;28;20128;-38
2021/05/28 01:09:20;;;;;;;5.40;2.75;;;;;;;;;;5016823;28;20502;-38
2021/05/28 01:11:45;;;;;;;3.92;2.30;;;;;;;;;;5013013;28;20041;-38
2021/05/28 01:14:11;;;;;;;8.07;3.50;;;;;;;;;;5017034;28;20033;-39
2021/05/28 01:16:36;;;;;;;4.28;2.22;;;;;;;;;;5018030;28;20036;-38
2021/05/28 01:19:01;;;;;;;6.10;2.85;;;;;;;;;;5014635;28;20088;-39
2021/05/28 01:21:27;;;;;;;7.65;2.58;;;;;;;;;;5014255;28;20076;-39
2021/05/28 01:23:53;;;;;;;3.53;2.47;;;;;;;;;;5012400;28;20037;-39
2021/05/28 01:26:18;;;;;;;4.63;2.72;;;;;;;;;;5017422;28;20041;-38
2021/05/28 01:28:43;;;;;;;4.45;1.65;;;;;;;;;;5019648;28;20040;-38
2021/05/28 01:31:09;;;;;;;7.85;2.15;;;;;;;;;;5015237;28;20108;-38
2021/05/28 01:33:37;;;;;;;4.13;3.10;;;;;;;;;;5017385;28;20034;-38
2021/05/28 01:36:03;;;;;;;8.68;3.00;;;;;;;;;;5019377;28;20036;-38
2021/05/28 01:38:28;;;;;;;5.32;3.22;;;;;;;;;;5019132;28;20067;-38
2021/05/28 01:40:53;;;;;;;5.10;2.88;;;;;;;;;;5018637;28;20037;-38
2021/05/28 01:43:19;;;;;;;9.00;2.80;;;;;;;;;;5018684;28;20513;-38
2021/05/28 01:45:44;;;;;;;6.40;4.22;;;;;;;;;;5017213;28;20030;-38
2021/05/28 01:48:10;;;;;;;5.28;3.40;;;;;;;;;;5015711;28;20037;-38
2021/05/28 01:50:44;;;;;;;10.02;3.13;;;;;;;;;;5015273;28;20033;-39
2021/05/28 01:53:11;;;;;;;2.80;1.80;;;;;;;;;;5012680;28;20056;-39
2021/05/28 01:55:36;;;;;;;3.83;2.47;;;;;;;;;;5015624;28;20029;-38
2021/05/28 01:58:05;;;;;;;7.55;2.45;;;;;;;;;;5014592;28;20589;-43
2021/05/28 02:00:30;;;;;;;13.15;4.32;;;;;;;;;;5013519;28;20055;-38
2021/05/28 02:02:56;;;;;;;5.07;2.30;;;;;;;;;;5013533;28;20033;-38
2021/05/28 02:05:21;;;;;;;6.28;2.70;;;;;;;;;;5017123;28;20430;-38
2021/05/28 02:07:46;;;;;;;5.68;3.40;;;;;;;;;;5014373;28;20398;-39
2021/05/28 02:10:11;;;;;;;4.07;2.33;;;;;;;;;;5014418;28;20069;-38
2021/05/28 02:12:37;;;;;;;3.95;2.60;;;;;;;;;;5016879;28;20038;-38
2021/05/28 02:15:02;;;;;;;10.50;2.72;;;;;;;;;;5017672;28;20108;-40
2021/05/28 02:17:29;;;;;;;6.63;2.75;;;;;;;;;;5014820;28;20065;-38
2021/05/28 02:19:54;;;;;;;4.63;2.55;;;;;;;;;;5013626;28;20026;-38
2021/05/28 02:22:20;;;;;;;6.15;3.10;;;;;;;;;;5016456;28;20029;-38
2021/05/28 02:24:45;;;;;;;7.93;3.17;;;;;;;;;;5014723;28;20040;-38
2021/05/28 02:27:11;;;;;;;6.78;3.25;;;;;;;;;;5018644;28;20072;-38
2021/05/28 02:29:37;;;;;;;4.57;2.95;;;;;;;;;;5017418;28;20048;-38
2021/05/28 02:32:02;;;;;;;7.15;3.03;;;;;;;;;;5016861;28;20029;-38
2021/05/28 02:34:28;;;;;;;5.50;3.38;;;;;;;;;;5013190;28;20057;-39
2021/05/28 02:36:53;;;;;;;4.22;2.75;;;;;;;;;;5013967;28;20112;-38
2021/05/28 02:39:18;;;;;;;3.58;2.10;;;;;;;;;;5018124;28;20084;-39
2021/05/28 02:41:44;;;;;;;3.92;1.77;;;;;;;;;;5018252;28;20080;-38
2021/05/28 02:44:09;;;;;;;4.60;2.22;;;;;;;;;;5016752;28;20352;-38
2021/05/28 02:46:34;;;;;;;8.45;2.90;;;;;;;;;;5016140;28;20124;-38
2021/05/28 02:49:01;;;;;;;9.88;2.45;;;;;;;;;;5013462;28;20117;-38
2021/05/28 02:51:26;;;;;;;4.10;1.95;;;;;;;;;;5017218;28;20079;-38
2021/05/28 02:53:51;;;;;;;3.70;2.92;;;;;;;;;;5019695;28;20076;-38
2021/05/28 02:56:17;;;;;;;4.00;2.30;;;;;;;;;;5019518;28;20167;-38
2021/05/28 02:58:42;;;;;;;6.72;3.97;;;;;;;;;;5017794;28;20561;-39
2021/05/28 03:01:07;;;;;;;7.82;3.40;;;;;;;;;;5018029;28;20045;-39
2021/05/28 03:03:33;;;;;;;5.93;2.05;;;;;;;;;;5020932;28;20050;-39
2021/05/28 03:05:58;;;;;;;7.30;3.38;;;;;;;;;;5019612;28;20088;-39
2021/05/28 03:08:25;;;;;;;8.32;3.38;;;;;;;;;;5016444;28;20037;-39
2021/05/28 03:10:50;;;;;;;5.28;3.67;;;;;;;;;;5018126;28;20042;-39
2021/05/28 03:13:15;;;;;;;4.68;3.47;;;;;;;;;;5020592;28;20772;-40
2021/05/28 03:15:41;;;;;;;7.72;3.88;;;;;;;;;;5014997;28;20066;-39
2021/05/28 03:18:15;;;;;;;5.47;3.60;;;;;;;;;;5019584;28;20041;-39
2021/05/28 03:20:41;;;;;;;7.75;4.07;;;;;;;;;;5018711;28;20113;-38
2021/05/28 03:23:07;;;;;;;7.47;2.83;;;;;;;;;;5020290;28;20033;-39
2021/05/28 03:25:32;;;;;;;4.68;2.75;;;;;;;;;;5016281;28;20037;-39
2021/05/28 03:27:57;;;;;;;3.72;2.85;;;;;;;;;;5019141;28;20061;-39
2021/05/28 03:30:23;;;;;;;5.88;2.85;;;;;;;;;;5019087;28;20091;-38
2021/05/28 03:32:48;;;;;;;12.77;3.10;;;;;;;;;;5019539;28;20111;-40
2021/05/28 03:35:14;;;;;;;5.82;3.13;;;;;;;;;;5020930;28;20168;-39
2021/05/28 03:37:40;;;;;;;6.07;2.80;;;;;;;;;;5017799;28;20032;-39
2021/05/28 03:40:06;;;;;;;6.82;3.75;;;;;;;;;;5012912;28;20034;-39
2021/05/28 03:42:31;;;;;;;8.07;3.97;;;;;;;;;;5018584;28;20022;-40
2021/05/28 03:44:56;;;;;;;4.20;3.10;;;;;;;;;;5018564;28;20071;-40
2021/05/28 03:47:22;;;;;;;4.40;3.50;;;;;;;;;;5017077;28;20304;-40
2021/05/28 03:49:47;;;;;;;11.40;3.45;;;;;;;;;;5019904;28;20029;-39
2021/05/28 03:52:12;;;;;;;5.30;3.17;;;;;;;;;;5017106;28;20536;-39
2021/05/28 03:54:38;;;;;;;8.90;2.97;;;;;;;;;;5021493;28;20525;-40
2021/05/28 03:57:03;;;;;;;8.95;3.88;;;;;;;;;;5019210;28;20033;-39
2021/05/28 03:59:29;;;;;;;9.80;3.65;;;;;;;;;;5016199;28;20088;-39
2021/05/28 04:01:54;;;;;;;4.88;4.00;;;;;;;;;;5016909;28;20530;-39
2021/05/28 04:04:20;;;;;;;6.95;4.03;;;;;;;;;;5017113;28;20809;-39
2021/05/28 04:06:45;;;;;;;8.90;4.53;;;;;;;;;;5019884;28;20106;-39
2021/05/28 04:09:10;;;;;;;6.43;3.25;;;;;;;;;;5019997;28;20030;-40
2021/05/28 04:11:35;;;;;;;7.25;2.45;;;;;;;;;;5017940;28;20033;-39
2021/05/28 04:14:01;;;;;;;4.82;3.33;;;;;;;;;;5020651;28;20548;-40
2021/05/28 04:16:26;;;;;;;7.40;4.88;;;;;;;;;;5017600;28;20040;-40
2021/05/28 04:18:52;;;;;;;3.92;2.97;;;;;;;;;;5021539;28;20551;-39
2021/05/28 04:21:17;;;;;;;4.90;2.47;;;;;;;;;;5014035;28;20060;-40
2021/05/28 04:23:42;;;;;;;6.97;2.70;;;;;;;;;;5017517;28;20113;-40
2021/05/28 04:26:08;;;;;;;7.68;5.80;;;;;;;;;;5002583;28;20064;-39
2021/05/28 04:28:33;;;;;;;16.73;7.57;;;;;;;;;;5017328;28;20073;-39
2021/05/28 04:30:58;;;;;;;6.82;4.93;;;;;;;;;;5017348;28;20065;-39
2021/05/28 04:33:24;;;;;;;4.97;4.28;;;;;;;;;;5014270;28;20117;-40
2021/05/28 04:35:50;;;;;;;5.68;2.70;;;;;;;;;;5020400;28;20041;-39
2021/05/28 04:38:15;;;;;;;4.05;3.08;;;;;;;;;;5016112;28;20108;-39
2021/05/28 04:40:41;;;;;;;10.00;2.78;;;;;;;;;;5017447;28;20135;-40
2021/05/28 04:43:06;;;;;;;3.88;2.95;;;;;;;;;;5017972;28;20030;-39
2021/05/28 04:45:31;;;;;;;7.88;3.30;;;;;;;;;;5017481;28;20046;-39
2021/05/28 04:47:57;;;;;;;5.13;3.00;;;;;;;;;;5000223;28;20043;-39
2021/05/28 04:50:30;;;;;;;4.13;2.47;;;;;;;;;;5018576;28;20026;-39
2021/05/28 04:52:55;;;;;;;6.90;3.83;;;;;;;;;;5018690;28;20172;-40
2021/05/28 04:55:21;;;;;;;5.35;3.25;;;;;;;;;;5017800;28;20058;-39
2021/05/28 04:57:46;;;;;;;6.05;3.75;;;;;;;;;;5018999;28;20625;-40
2021/05/28 05:00:12;;;;;;;10.27;4.13;;;;;;;;;;5021892;28;20798;-39
2021/05/28 05:02:37;;;;;;;13.10;10.45;;;;;;;;;;5015621;28;20034;-40
2021/05/28 05:05:03;;;;;;;4.25;3.20;;;;;;;;;;5016022;28;20033;-39
2021/05/28 05:07:28;;;;;;;4.78;3.28;;;;;;;;;;5015973;28;20041;-40
2021/05/28 05:09:53;;;;;;;5.80;3.78;;;;;;;;;;5015789;28;20517;-41
2021/05/28 05:12:19;;;;;;;8.52;2.92;;;;;;;;;;5017740;28;20030;-39
2021/05/28 05:14:44;;;;;;;6.07;5.28;;;;;;;;;;5013587;28;20038;-39
2021/05/28 05:17:09;;;;;;;15.13;13.82;;;;;;;;;;5018685;28;20025;-40
2021/05/28 05:19:35;;;;;;;11.40;9.20;;;;;;;;;;5015987;28;20044;-40
2021/05/28 05:22:00;;;;;;;13.77;9.13;;;;;;;;;;5017144;28;20111;-39
2021/05/28 05:24:25;;;;;;;13.25;4.50;;;;;;;;;;5019822;28;20111;-39
2021/05/28 05:26:51;;;;;;;11.23;2.95;;;;;;;;;;5016300;28;20042;-39
2021/05/28 05:29:16;;;;;;;5.57;3.00;;;;;;;;;;5018344;28;20048;-39
2021/05/28 05:31:42;;;;;;;7.88;3.50;;;;;;;;;;5016670;28;20534;-39
2021/05/28 05:34:07;;;;;;;8.70;4.53;;;;;;;;;;5019085;28;20569;-39
2021/05/28 05:36:35;;;;;;;6.22;3.67;;;;;;;;;;5011326;28;20036;-41
2021/05/28 05:39:00;;;;;;;7.20;3.42;;;;;;;;;;5014392;28;20046;-40
2021/05/28 05:41:25;;;;;;;4.55;4.15;;;;;;;;;;5016355;28;20110;-40
2021/05/28 05:43:51;;;;;;;7.63;4.90;;;;;;;;;;5016577;28;20033;-40
2021/05/28 05:46:16;;;;;;;5.22;4.63;;;;;;;;;;5017688;28;20458;-39
2021/05/28 05:48:42;;;;;;;15.95;5.43;;;;;;;;;;5015790;28;20040;-41
2021/05/28 05:51:07;;;;;;;15.95;6.40;;;;;;;;;;5014367;28;20046;-39
2021/05/28 05:53:32;;;;;;;8.80;5.38;;;;;;;;;;5015335;28;20432;-39
2021/05/28 05:55:58;;;;;;;8.25;4.60;;;;;;;;;;5014431;28;20041;-39
2021/05/28 05:58:23;;;;;;;23.15;5.13;;;;;;;;;;5014990;28;20084;-40
2021/05/28 06:00:48;;;;;;;9.15;5.45;;;;;;;;;;5013470;28;20053;-40
2021/05/28 06:03:15;;;;;;;17.35;6.22;;;;;;;;;;5011800;28;20755;-41
2021/05/28 06:05:40;;;;;;;6.15;5.40;;;;;;;;;;5016259;28;20038;-45
2021/05/28 06:08:05;;;;;;;10.50;6.97;;;;;;;;;;5016586;28;20677;-40
2021/05/28 06:10:31;;;;;;;14.00;4.78;;;;;;;;;;5017945;28;20403;-40
2021/05/28 06:13:22;;;;;;;14.13;5.50;;;;;;;;;;5013215;28;20045;-42
2021/05/28 06:15:48;;;;;;;5.03;4.05;;;;;;;;;;5012095;28;20068;-41
2021/05/28 06:18:13;;;;;;;26.95;4.30;;;;;;;;;;5016567;28;20072;-40
2021/05/28 06:20:38;;;;;;;8.48;5.00;;;;;;;;;;5016399;28;20041;-41
2021/05/28 06:23:04;;;;;;;9.10;5.38;;;;;;;;;;5015121;28;20037;-39
2021/05/28 06:25:29;;;;;;;7.68;5.32;;;;;;;;;;5012896;28;20048;-41
2021/05/28 06:27:54;;;;;;;6.18;4.75;;;;;;;;;;5015178;28;20029;-39
2021/05/28 06:30:20;;;;;;;11.55;5.88;;;;;;;;;;5019875;28;20029;-40
2021/05/28 06:32:45;;;;;;;8.13;5.97;;;;;;;;;;5018203;28;20415;-39
2021/05/28 06:35:11;;;;;;;12.38;6.78;;;;;;;;;;5014039;28;20030;-40
2021/05/28 06:37:36;;;;;;;7.85;6.25;;;;;;;;;;5015915;28;20119;-41
2021/05/28 06:40:03;;;;;;;12.13;5.10;;;;;;;;;;5014524;28;20056;-39
2021/05/28 06:42:28;;;;;;;12.35;6.53;;;;;;;;;;5017140;28;20030;-40
2021/05/28 06:44:53;;;;;;;8.82;7.80;;;;;;;;;;5015175;28;20030;-40
2021/05/28 06:47:19;;;;;;;8.18;6.40;;;;;;;;;;5013036;28;20052;-41
2021/05/28 06:49:44;;;;;;;11.90;7.30;;;;;;;;;;5014113;28;20030;-39
2021/05/28 06:52:10;;;;;;;11.60;6.53;;;;;;;;;;5014959;28;20038;-39
2021/05/28 06:54:36;;;;;;;17.67;6.95;;;;;;;;;;5014980;28;20041;-40
2021/05/28 06:57:01;;;;;;;14.70;5.60;;;;;;;;;;5017133;28;20053;-39
2021/05/28 06:59:27;;;;;;;9.85;6.10;;;;;;;;;;5013046;28;20503;-40
2021/05/28 07:01:54;;;;;;;8.05;5.45;;;;;;;;;;5012469;28;20494;-40
2021/05/28 07:04:19;;;;;;;11.75;7.15;;;;;;;;;;5014407;28;20041;-40
2021/05/28 07:06:44;;;;;;;17.17;8.10;;;;;;;;;;5016538;28;20442;-40
2021/05/28 07:09:10;;;;;;;9.30;6.50;;;;;;;;;;5018677;28;20145;-40
2021/05/28 07:11:35;;;;;;;10.95;6.32;;;;;;;;;;5018463;28;20149;-42
2021/05/28 07:14:00;;;;;;;19.75;7.22;;;;;;;;;;5013666;28;20075;-40
2021/05/28 07:16:28;;;;;;;16.33;12.55;;;;;;;;;;5015457;28;20203;-40
2021/05/28 07:18:53;;;;;;;11.85;9.60;;;;;;;;;;5015730;28;20053;-40
2021/05/28 07:21:18;;;;;;;9.20;8.05;;;;;;;;;;5020334;28;20026;-40
2021/05/28 07:23:44;;;;;;;9.95;7.32;;;;;;;;;;5015321;28;20039;-40
2021/05/28 07:26:09;;;;;;;15.40;8.73;;;;;;;;;;5016392;28;20548;-35
2021/05/28 07:28:34;;;;;;;14.10;6.35;;;;;;;;;;5013621;28;20044;-35
2021/05/28 07:31:00;;;;;;;38.00;7.65;;;;;;;;;;5033674;28;20113;-35
2021/05/28 07:33:25;;;;;;;7.45;3.40;;;;;;;;;;5015685;28;20129;-36
2021/05/28 07:35:51;;;;;;;16.00;5.05;;;;;;;;;;5014728;28;20542;-35
2021/05/28 07:38:16;;;;;;;9.60;4.82;;;;;;;;;;5018356;28;20034;-36
2021/05/28 07:40:42;;;;;;;18.08;3.95;;;;;;;;;;5016966;28;20103;-36
2021/05/28 07:43:07;;;;;;;10.68;5.93;;;;;;;;;;5017793;28;20514;-36
2021/05/28 07:45:33;;;;;;;12.93;4.95;;;;;;;;;;5017990;28;20037;-36
2021/05/28 07:47:59;;;;;;;7.25;5.07;;;;;;;;;;5014325;28;20486;-35
2021/05/28 07:50:24;;;;;;;3.90;3.15;;;;;;;;;;5015355;28;20029;-35
2021/05/28 07:52:50;;;;;;;7.88;4.03;;;;;;;;;;5015640;28;20625;-35
2021/05/28 07:55:15;;;;;;;9.48;4.80;;;;;;;;;;5015097;28;20041;-35
2021/05/28 07:57:41;;;;;;;8.40;3.03;;;;;;;;;;5016881;28;20029;-36
2021/05/28 08:00:07;;;;;;;4.95;3.42;;;;;;;;;;5019046;28;20081;-36
2021/05/28 08:02:33;;;;;;;6.95;3.22;;;;;;;;;;5017312;28;20491;-36
2021/05/28 08:04:58;;;;;;;18.20;5.65;;;;;;;;;;5018077;28;20056;-35
2021/05/28 08:07:23;;;;;;;7.00;3.83;;;;;;;;;;5020004;28;20037;-36
2021/05/28 08:09:49;;;;;;;10.10;6.63;;;;;;;;;;5018379;28;20041;-36
2021/05/28 08:12:15;;;;;;;13.07;5.53;;;;;;;;;;5022866;28;20125;-36
2021/05/28 08:14:40;;;;;;;5.88;4.93;;;;;;;;;;5014336;28;20164;-36
2021/05/28 08:17:05;;;;;;;5.50;3.35;;;;;;;;;;5017523;28;20026;-36
2021/05/28 08:19:31;;;;;;;8.25;5.50;;;;;;;;;;5018201;28;20029;-36
2021/05/28 08:21:56;;;;;;;5.65;3.20;;;;;;;;;;5021674;28;20037;-36
2021/05/28 08:24:21;;;;;;;10.23;3.92;;;;;;;;;;5014264;28;20447;-36
2021/05/28 08:26:47;;;;;;;182.13;30.75;;;;;;;;;;5019667;28;20227;-36
2021/05/28 08:29:12;;;;;;;6.63;2.40;;;;;;;;;;5020005;28;20367;-36
2021/05/28 08:31:37;;;;;;;5.05;2.38;;;;;;;;;;5019382;28;20766;-36
2021/05/28 08:34:03;;;;;;;6.55;4.97;;;;;;;;;;5017672;28;20037;-36
2021/05/28 08:36:28;;;;;;;5.35;4.40;;;;;;;;;;5019210;28;20034;-36
2021/05/28 08:38:53;;;;;;;11.82;2.70;;;;;;;;;;5016983;28;20584;-36
2021/05/28 08:41:19;;;;;;;7.90;1.88;;;;;;;;;;5016677;28;20037;-35
2021/05/28 08:43:45;;;;;;;8.52;1.50;;;;;;;;;;5017725;28;20053;-36
2021/05/28 08:46:14;;;;;;;6.32;2.13;;;;;;;;;;5016389;28;20034;-35
2021/05/28 08:48:39;;;;;;;2.15;1.50;;;;;;;;;;5014638;28;20045;-36
2021/05/28 08:51:05;;;;;;;7.43;2.25;;;;;;;;;;5017761;28;20030;-35
2021/05/28 08:53:30;;;;;;;9.13;2.88;;;;;;;;;;5018303;28;20045;-35
2021/05/28 08:55:55;;;;;;;6.43;1.83;;;;;;;;;;5030668;28;20021;-35
2021/05/28 08:58:21;;;;;;;1.33;0.70;;;;;;;;;;5015105;28;20030;-35
2021/05/28 09:00:47;;;;;;;1.40;1.25;;;;;;;;;;5018856;28;20510;-35
2021/05/28 09:03:29;;;;;;;6.03;3.83;;;;;;;;;;5018606;28;20053;-35
2021/05/28 09:05:56;;;;;;;6.28;3.22;;;;;;;;;;5016686;28;20037;-36
2021/05/28 09:08:24;;;;;;;5.35;2.65;;;;;;;;;;5018698;28;20033;-36
2021/05/28 09:10:49;;;;;;;9.27;1.70;;;;;;;;;;5020225;28;20034;-35
2021/05/28 09:13:22;;;;;;;4.72;1.52;;;;;;;;;;5018396;28;20514;-35
2021/05/28 09:15:48;;;;;;;3.40;1.17;;;;;;;;;;5019016;28;20056;-36
2021/05/28 09:18:14;;;;;;;3.42;2.35;;;;;;;;;;5018893;28;20040;-35
2021/05/28 09:20:40;;;;;;;5.50;1.48;;;;;;;;;;5017371;28;20033;-35
2021/05/28 09:23:09;;;;;;;1.80;1.13;;;;;;;;;;5016183;28;20037;-35
2021/05/28 09:25:53;;;;;;;13.73;1.50;;;;;;;;;;5018579;28;20428;-35
2021/05/28 09:28:19;;;;;;;1.55;0.88;;;;;;;;;;5014807;28;20185;-35
2021/05/28 09:30:55;;;;;;;2.58;1.58;;;;;;;;;;5022213;28;20120;-38
2021/05/28 09:33:20;;;;;;;3.05;2.55;;;;;;;;;;5013699;28;20120;-39
2021/05/28 09:35:47;;;;;;;5.85;3.60;;;;;;;;;;5012174;28;20455;-39
2021/05/28 09:38:19;;;;;;;21.90;8.52;;;;;;;;;;5010723;28;20209;-39
2021/05/28 09:40:47;;;;;;;7.53;6.15;;;;;;;;;;5013051;28;20057;-39
2021/05/28 09:43:13;;;;;;;4.70;3.17;;;;;;;;;;5013071;28;20049;-38
2021/05/28 09:45:39;;;;;;;2.25;1.52;;;;;;;;;;5016758;28;20033;-39
2021/05/28 09:48:19;;;;;;;5.43;1.88;;;;;;;;;;5015671;28;20048;-39
2021/05/28 09:50:51;;;;;;;6.65;1.92;;;;;;;;;;5012108;28;20037;-39
2021/05/28 09:53:27;;;;;;;1.67;0.73;;;;;;;;;;5018166;28;20069;-40
2021/05/28 09:55:52;;;;;;;15.85;1.35;;;;;;;;;;5012609;28;20029;-39
2021/05/28 09:58:18;;;;;;;13.05;2.28;;;;;;;;;;5017280;28;20079;-39
2021/05/28 10:00:43;;;;;;;26.80;14.88;;;;;;;;;;5012256;28;20153;-38
2021/05/28 10:03:12;;;;;;;24.67;19.92;;;;;;;;;;5015276;28;20088;-38
2021/05/28 10:05:38;;;;;;;31.38;20.98;;;;;;;;;;5014751;28;20060;-40
2021/05/28 10:08:09;;;;;;;18.45;13.70;;;;;;;;;;5011541;28;20034;-38
2021/05/28 10:10:36;;;;;;;11.95;5.20;;;;;;;;;;5011532;28;20128;-37
2021/05/28 10:13:11;;;;;;;2.20;1.13;;;;;;;;;;5012630;28;20038;-38
2021/05/28 10:15:43;;;;;;;7.40;4.45;;;;;;;;;;5014115;28;20809;-38
2021/05/28 10:18:12;;;;;;;33.03;27.02;;;;;;;;;;5017261;28;20038;-38
2021/05/28 10:20:39;;;;;;;41.92;30.73;;;;;;;;;;5009474;28;20057;-38
2021/05/28 10:23:05;;;;;;;16.83;11.73;;;;;;;;;;5010414;28;20523;-38
2021/05/28 10:25:30;;;;;;;3.80;2.78;;;;;;;;;;5012831;28;20080;-38
2021/05/28 10:27:57;;;;;;;11.55;5.00;;;;;;;;;;5013943;28;20700;-38
2021/05/28 10:30:35;;;;;;;6.15;3.13;;;;;;;;;;5012293;28;20033;-38
2021/05/28 10:33:18;;;;;;;4.07;2.08;;;;;;;;;;5012058;28;20030;-38
2021/05/28 10:35:47;;;;;;;5.30;2.08;;;;;;;;;;5011447;28;20066;-38
2021/05/28 10:38:33;;;;;;;6.35;1.63;;;;;;;;;;5013947;28;20041;-38
2021/05/28 10:41:05;;;;;;;2.20;1.17;;;;;;;;;;5012280;28;20045;-38
2021/05/28 10:43:34;;;;;;;0.80;0.60;;;;;;;;;;5012954;28;20033;-37
2021/05/28 10:46:03;;;;;;;1.17;0.30;;;;;;;;;;5012026;28;20527;-37
2021/05/28 10:48:38;;;;;;;0.80;0.10;;;;;;;;;;5011164;28;20045;-38
2021/05/28 10:51:07;;;;;;;4.80;0.55;;;;;;;;;;5012919;28;20042;-37
2021/05/28 10:53:32;;;;;;;1.17;0.60;;;;;;;;;;5012133;28;20034;-34
2021/05/28 10:56:00;;;;;;;3.88;0.88;;;;;;;;;;5011636;28;20029;-34
2021/05/28 10:58:44;;;;;;;6.05;1.02;;;;;;;;;;5010786;28;20109;-34
2021/05/28 11:01:38;;;;;;;0.30;0.30;;;;;;;;;;5012361;28;20081;-35
2021/05/28 11:04:05;;;;;;;3.45;0.75;;;;;;;;;;5003384;28;20046;-46
2021/05/28 11:06:31;;;;;;;0.75;0.47;;;;;;;;;;5012944;28;20049;-34
2021/05/28 11:09:03;;;;;;;0.60;0.55;;;;;;;;;;5013026;28;20148;-34
2021/05/28 11:11:37;;;;;;;0.43;0.15;;;;;;;;;;5014374;28;20025;-35
2021/05/28 11:14:04;;;;;;;0.25;0.22;;;;;;;;;;5015772;28;20034;-34
2021/05/28 11:16:49;;;;;;;0.10;0.05;;;;;;;;;;5017956;28;20037;-35
2021/05/28 11:19:21;;;;;;;6.18;0.88;;;;;;;;;;5019727;28;20510;-35
2021/05/28 11:21:52;;;;;;;0.32;0.20;;;;;;;;;;5014242;28;20449;-35
2021/05/28 11:24:18;;;;;;;0.45;0.30;;;;;;;;;;5019381;28;20483;-34
2021/05/28 11:26:43;;;;;;;3.30;0.75;;;;;;;;;;5017588;28;20671;-35
2021/05/28 11:29:17;;;;;;;1.33;0.50;;;;;;;;;;5014690;28;20038;-35
2021/05/28 11:31:43;;;;;;;0.55;0.20;;;;;;;;;;5019502;28;20041;-35
2021/05/28 11:34:09;;;;;;;0.43;0.20;;;;;;;;;;5016422;28;20036;-35
2021/05/28 11:36:39;;;;;;;0.52;0.00;;;;;;;;;;5016061;28;20030;-34
2021/05/28 11:39:06;;;;;;;0.10;0.10;;;;;;;;;;5014657;28;20029;-34
2021/05/28 11:41:41;;;;;;;1.00;0.65;;;;;;;;;;5020726;28;20033;-34
2021/05/28 11:44:08;;;;;;;0.17;0.10;;;;;;;;;;5016371;28;20033;-34
2021/05/28 11:46:33;;;;;;;1.17;0.40;;;;;;;;;;5015111;28;20037;-34
2021/05/28 11:49:00;;;;;;;0.10;0.00;;;;;;;;;;5019578;28;20766;-34
2021/05/28 11:51:25;;;;;;;0.32;0.30;;;;;;;;;;5014437;28;20037;-33
2021/05/28 11:53:51;;;;;;;0.35;0.32;;;;;;;;;;5016889;28;20456;-34
2021/05/28 11:56:16;;;;;;;1.48;0.40;;;;;;;;;;5018233;28;20526;-34
2021/05/28 11:58:49;;;;;;;0.22;0.10;;;;;;;;;;5017459;28;20041;-34
2021/05/28 12:01:14;;;;;;;2.88;1.00;;;;;;;;;;5017493;28;20058;-34
2021/05/28 12:03:39;;;;;;;0.52;0.30;;;;;;;;;;5015605;28;20072;-34
2021/05/28 12:06:06;;;;;;;1.13;0.28;;;;;;;;;;5016661;28;20128;-34
2021/05/28 12:08:31;;;;;;;0.95;0.28;;;;;;;;;;5017048;28;20061;-34
2021/05/28 12:11:03;;;;;;;0.70;0.47;;;;;;;;;;5018149;28;20501;-34
2021/05/28 12:13:29;;;;;;;0.57;0.30;;;;;;;;;;5018336;28;20395;-34
2021/05/28 12:15:56;;;;;;;0.88;0.70;;;;;;;;;;5015784;28;20783;-34
2021/05/28 12:18:24;;;;;;;3.13;1.33;;;;;;;;;;5012871;28;20075;-34
2021/05/28 12:21:07;;;;;;;1.20;0.70;;;;;;;;;;5017820;28;20122;-35
2021/05/28 12:23:33;;;;;;;3.17;1.75;;;;;;;;;;5016744;28;20029;-35
2021/05/28 12:26:06;;;;;;;5.53;3.58;;;;;;;;;;5009166;28;20355;-35
2021/05/28 12:28:33;;;;;;;4.05;2.42;;;;;;;;;;5017986;28;20112;-35
2021/05/28 12:31:00;;;;;;;9.88;2.45;;;;;;;;;;5014712;28;20033;-35
2021/05/28 12:33:30;;;;;;;3.03;1.73;;;;;;;;;;5016391;28;20033;-35
2021/05/28 12:35:57;;;;;;;4.18;3.15;;;;;;;;;;5016328;28;20487;-35
2021/05/28 12:38:23;;;;;;;10.45;9.45;;;;;;;;;;5016351;28;20049;-35
2021/05/28 12:40:49;;;;;;;8.68;7.78;;;;;;;;;;5015283;28;20144;-35
2021/05/28 12:43:20;;;;;;;19.33;11.93;;;;;;;;;;5015818;28;20058;-35
2021/05/28 12:45:45;;;;;;;13.40;9.43;;;;;;;;;;5014385;28;20041;-35
2021/05/28 12:48:11;;;;;;;9.20;7.90;;;;;;;;;;5017787;28;20247;-35
2021/05/28 12:50:38;;;;;;;10.32;7.97;;;;;;;;;;5017363;28;20049;-35
2021/05/28 12:53:09;;;;;;;10.05;5.05;;;;;;;;;;5017111;28;20144;-35
2021/05/28 12:55:35;;;;;;;7.05;3.95;;;;;;;;;;5018834;28;20398;-35
2021/05/28 12:58:01;;;;;;;3.85;2.60;;;;;;;;;;5013413;28;20080;-35
2021/05/28 13:00:49;;;;;;;13.43;3.25;;;;;;;;;;5019699;28;20557;-35
2021/05/28 13:03:30;;;;;;;3.55;3.03;;;;;;;;;;5016535;28;20136;-35
2021/05/28 13:05:55;;;;;;;2.67;1.45;;;;;;;;;;5018060;28;20088;-35
2021/05/28 13:08:29;;;;;;;9.55;3.58;;;;;;;;;;5011845;28;20041;-35
2021/05/28 13:10:58;;;;;;;4.45;3.00;;;;;;;;;;5021164;28;20029;-35
2021/05/28 13:13:24;;;;;;;6.20;4.07;;;;;;;;;;5018038;28;20514;-35
2021/05/28 13:15:50;;;;;;;7.32;2.13;;;;;;;;;;5018053;28;20111;-34
2021/05/28 13:18:16;;;;;;;4.03;1.60;;;;;;;;;;5014515;28;20030;-35
2021/05/28 13:20:45;;;;;;;2.42;1.48;;;;;;;;;;5012836;28;20087;-35
2021/05/28 13:23:18;;;;;;;6.72;2.28;;;;;;;;;;5015737;28;20103;-35
2021/05/28 13:25:43;;;;;;;6.97;3.15;;;;;;;;;;5017619;28;20029;-35
2021/05/28 13:28:13;;;;;;;2.15;1.20;;;;;;;;;;5015826;28;20034;-35
2021/05/28 13:30:38;;;;;;;2.72;1.42;;;;;;;;;;5020635;28;20710;-35
2021/05/28 13:33:18;;;;;;;6.10;2.70;;;;;;;;;;5016716;28;20044;-36
2021/05/28 13:35:44;;;;;;;4.55;1.58;;;;;;;;;;5016682;28;20037;-33
2021/05/28 13:38:09;;;;;;;4.70;1.88;;;;;;;;;;5013208;28;20038;-34
2021/05/28 13:40:34;;;;;;;3.88;1.98;;;;;;;;;;5014709;28;20550;-34
2021/05/28 13:43:00;;;;;;;4.95;1.70;;;;;;;;;;5016278;28;20032;-34
2021/05/28 13:45:25;;;;;;;2.00;1.08;;;;;;;;;;5015368;28;20036;-34
2021/05/28 13:47:50;;;;;;;3.22;1.90;;;;;;;;;;5014353;28;20029;-34
2021/05/28 13:50:16;;;;;;;2.38;1.30;;;;;;;;;;5015739;28;20510;-34
2021/05/28 13:52:41;;;;;;;2.00;1.08;;;;;;;;;;5017920;28;20069;-34
2021/05/28 13:55:07;;;;;;;5.80;1.48;;;;;;;;;;5015554;28;20118;-34
2021/05/28 13:57:32;;;;;;;1.60;0.90;;;;;;;;;;5016304;28;20117;-34
2021/05/28 13:59:57;;;;;;;3.95;1.38;;;;;;;;;;5013958;28;20776;-34
2021/05/28 14:02:23;;;;;;;2.20;1.88;;;;;;;;;;5016486;28;20652;-34
2021/05/28 14:04:48;;;;;;;1.67;0.90;;;;;;;;;;5014949;28;20041;-33
2021/05/28 14:07:14;;;;;;;5.97;1.17;;;;;;;;;;5017402;28;20060;-33
2021/05/28 14:09:39;;;;;;;1.92;1.35;;;;;;;;;;5015315;28;20124;-33
2021/05/28 14:12:05;;;;;;;0.70;0.45;;;;;;;;;;5012362;28;20037;-33
2021/05/28 14:14:30;;;;;;;12.27;2.25;;;;;;;;;;5012515;28;20136;-33
2021/05/28 14:16:55;;;;;;;2.70;1.52;;;;;;;;;;5017016;28;20079;-34
2021/05/28 14:19:21;;;;;;;4.82;2.72;;;;;;;;;;5017524;28;20033;-34
2021/05/28 14:21:46;;;;;;;1.67;1.08;;;;;;;;;;5018316;28;20081;-33
2021/05/28 14:24:11;;;;;;;2.65;1.35;;;;;;;;;;5014301;28;20464;-33
2021/05/28 14:26:38;;;;;;;0.93;0.65;;;;;;;;;;5016531;28;20096;-33
2021/05/28 14:29:04;;;;;;;6.93;1.67;;;;;;;;;;5013460;28;20095;-33
2021/05/28 14:31:30;;;;;;;2.45;0.80;;;;;;;;;;5015015;28;20526;-33
2021/05/28 14:33:58;;;;;;;2.65;0.80;;;;;;;;;;5016478;28;20104;-33
2021/05/28 14:36:25;;;;;;;5.90;1.17;;;;;;;;;;5015848;28;20037;-33
2021/05/28 14:38:50;;;;;;;2.22;1.67;;;;;;;;;;5015332;28;20038;-33